Terminal Aerodrome Forecast
Issued by NWS Charleston, WV

Current Version | Previous Version | Graphics & Text | Print | Product List | Glossary On
Versions: 1 2 3 4 5 6 7 8 9 10 11 12 13 14 15 16 17 18 19 20 21 22 23 24 25 26 27 28 29
000
FTUS41 KRLX 211700
TAFBKW
TAF
KBKW 211720Z 2118/2218 26005KT P6SM SCT040
     FM212100 30004KT 6SM -SHRA VCTS BKN040CB OVC100
     FM212300 VRB03KT 4SM SHRA BR VCTS BKN040CB
     FM220100 00000KT P6SM SHRA VCTS BKN040CB
     FM220400 00000KT P6SM BKN040
     FM221100 00000KT 6SM BR BKN070
     FM221300 VRB03KT P6SM VCTS BKN080CB=

USA.gov is the U.S. government's official web portal to all federal, state and local government web resources and services.